ESGJ/JKG METAR and TAF weather

Enter ICAO airport designator
Station Type Date Time Source
ESGJ METAR 2019/04/25 21:50 UTC NOAA

ESGJ 252150Z 10005KT CAVOK 12/07 Q1015


Station Type Date Time Source
ESGJ Decoded METAR 2019/04/25 21:50 UTC NOAA

Jonkoping Flygplats, Sweden (ESGJ) 57-46N 014-05E 232M
Apr 25, 2019 - 05:50 PM EDT / 2019.04.25 2150 UTC
Wind: from the E (100 degrees) at 6 MPH (5 KT):0
Visibility: greater than 7 mile(s):0
Temperature: 53 F (12 C)
Dew Point: 44 F (7 C)
Relative Humidity: 71%
Pressure (altimeter): 29.97 in. Hg (1015 hPa)
ob: ESGJ 252150Z 10005KT CAVOK 12/07 Q1015
cycle: 22

Station Type Date Time Source
ESGJ TAF 2015/05/01 23:06 UTC NOAA

TAF TAF ESGJ 302359Z 3023/0101 CNL

Example: see airport list